Time,TemperatureF,DewpointF,PressureIn,WindDirection,WindDirectionDegrees,WindSpeedMPH,WindSpeedGustMPH,Humidity,HourlyPrecipIn,Conditions,Clouds,dailyrainin,SoftwareType,DateUTC
2013-05-18 00:04:00,75.7,72.0,30.00,ESE,111,0.0,1.0,88,0.00,,,0.00,weatherlink.com 1.10,2013-05-18 04:04:00,
2013-05-18 00:19:00,75.4,72.0,30.00,ESE,110,0.0,1.0,88,0.00,,,0.00,weatherlink.com 1.10,2013-05-18 04:19:00,
2013-05-18 00:34:00,75.1,72.0,30.00,ESE,110,0.0,1.0,89,0.00,,,0.00,weatherlink.com 1.10,2013-05-18 04:34:00,
2013-05-18 00:49:00,74.9,71.0,29.99,ESE,110,0.0,1.0,88,0.00,,,0.00,weatherlink.com 1.10,2013-05-18 04:49:00,
2013-05-18 01:04:00,74.7,71.0,29.99,ESE,115,0.0,2.0,88,0.00,,,0.00,weatherlink.com 1.10,2013-05-18 05:04:00,
2013-05-18 01:20:00,74.2,71.0,29.98,ESE,118,0.0,2.0,89,0.00,,,0.00,weatherlink.com 1.10,2013-05-18 05:20:00,
2013-05-18 01:35:00,74.0,71.0,29.98,ESE,118,0.0,1.0,89,0.00,,,0.00,weatherlink.com 1.10,2013-05-18 05:35:00,
2013-05-18 01:50:00,73.7,70.0,29.98,ESE,118,0.0,1.0,89,0.00,,,0.00,weatherlink.com 1.10,2013-05-18 05:50:00,
2013-05-18 02:05:00,73.5,70.0,29.98,ESE,118,0.0,-999.0,89,-99.99,,,0.00,weatherlink.com 1.10,2013-05-18 06:05:00,
2013-05-18 02:20:00,73.3,70.0,29.98,ESE,118,0.0,1.0,89,0.00,,,0.00,weatherlink.com 1.10,2013-05-18 06:20:00,
2013-05-18 02:35:00,73.2,70.0,29.98,ESE,118,0.0,1.0,89,0.00,,,0.00,weatherlink.com 1.10,2013-05-18 06:35:00,
2013-05-18 02:50:00,72.9,70.0,29.98,SE,134,1.0,1.0,90,0.00,,,0.00,weatherlink.com 1.10,2013-05-18 06:50:00,
2013-05-18 03:05:00,72.9,70.0,29.98,SE,140,0.0,2.0,90,0.00,,,0.00,weatherlink.com 1.10,2013-05-18 07:05:00,
2013-05-18 03:20:00,72.8,70.0,29.98,SE,136,0.0,2.0,89,0.00,,,0.00,weatherlink.com 1.10,2013-05-18 07:20:00,
2013-05-18 03:35:00,72.7,69.0,29.98,SE,134,0.0,1.0,89,0.00,,,0.00,weatherlink.com 1.10,2013-05-18 07:35:00,
2013-05-18 03:50:00,72.5,69.0,29.98,SE,134,0.0,2.0,89,0.00,,,0.00,weatherlink.com 1.10,2013-05-18 07:50:00,
2013-05-18 04:05:00,72.4,69.0,29.98,SE,128,1.0,1.0,89,0.00,,,0.00,weatherlink.com 1.10,2013-05-18 08:05:00,
2013-05-18 04:20:00,72.2,69.0,29.98,SE,128,1.0,1.0,89,0.00,,,0.00,weatherlink.com 1.10,2013-05-18 08:20:00,
2013-05-18 04:35:00,71.9,69.0,29.98,SE,128,0.0,0.0,89,0.00,,,0.00,weatherlink.com 1.10,2013-05-18 08:35:00,
2013-05-18 04:50:00,71.8,69.0,29.98,SE,128,0.0,0.0,89,0.00,,,0.00,weatherlink.com 1.10,2013-05-18 08:50:00,
2013-05-18 05:05:00,71.6,69.0,29.98,SE,128,0.0,0.0,90,0.00,,,0.00,weatherlink.com 1.10,2013-05-18 09:05:00,
2013-05-18 05:20:00,71.4,68.0,29.99,SE,128,0.0,0.0,90,0.00,,,0.00,weatherlink.com 1.10,2013-05-18 09:20:00,
2013-05-18 05:35:00,71.1,68.0,29.98,SE,128,0.0,1.0,90,0.00,,,0.00,weatherlink.com 1.10,2013-05-18 09:35:00,
2013-05-18 05:50:00,70.9,68.0,29.99,SE,128,0.0,1.0,90,0.00,,,0.00,weatherlink.com 1.10,2013-05-18 09:50:00,
2013-05-18 06:05:00,70.6,68.0,29.99,SE,128,0.0,1.0,91,0.00,,,0.00,weatherlink.com 1.10,2013-05-18 10:05:00,
2013-05-18 06:20:00,71.9,69.0,30.00,SE,129,0.0,0.0,91,0.00,,,0.00,weatherlink.com 1.10,2013-05-18 10:20:00,
2013-05-18 06:35:00,74.3,70.0,30.00,SE,128,0.0,1.0,87,0.00,,,0.00,weatherlink.com 1.10,2013-05-18 10:35:00,
2013-05-18 06:50:00,76.5,70.0,30.00,SE,131,0.0,1.0,81,0.00,,,0.00,weatherlink.com 1.10,2013-05-18 10:50:00,
2013-05-18 07:05:00,76.7,71.0,30.00,SE,131,0.0,1.0,81,0.00,,,0.00,weatherlink.com 1.10,2013-05-18 11:05:00,
2013-05-18 07:20:00,79.9,71.0,30.00,SE,131,0.0,1.0,75,0.00,,,0.00,weatherlink.com 1.10,2013-05-18 11:20:00,
2013-05-18 07:35:00,82.0,72.0,30.00,SE,131,0.0,1.0,72,0.00,,,0.00,weatherlink.com 1.10,2013-05-18 11:35:00,
2013-05-18 07:50:00,83.0,72.0,30.00,SE,124,0.0,1.0,70,0.00,,,0.00,weatherlink.com 1.10,2013-05-18 11:50:00,
2013-05-18 08:05:00,80.9,72.0,30.01,NE,43,3.0,3.0,75,0.00,,,0.00,weatherlink.com 1.10,2013-05-18 12:05:00,
2013-05-18 08:20:00,80.9,73.0,30.01,East,83,2.0,4.0,76,0.00,,,0.00,weatherlink.com 1.10,2013-05-18 12:20:00,
2013-05-18 08:35:00,81.9,74.0,30.01,East,86,1.0,2.0,76,0.00,,,0.00,weatherlink.com 1.10,2013-05-18 12:35:00,
2013-05-18 08:50:00,82.6,74.0,30.01,NE,37,3.0,6.0,74,0.00,,,0.00,weatherlink.com 1.10,2013-05-18 12:50:00,
2013-05-18 09:05:00,82.7,73.0,30.01,ESE,102,8.0,11.0,73,0.00,,,0.00,weatherlink.com 1.10,2013-05-18 13:05:00,
2013-05-18 09:20:00,82.3,74.0,30.01,North,1,6.0,8.0,75,0.00,,,0.00,weatherlink.com 1.10,2013-05-18 13:20:00,
2013-05-18 09:35:00,83.2,73.0,30.01,NE,53,3.0,12.0,71,0.00,,,0.00,weatherlink.com 1.10,2013-05-18 13:35:00,
2013-05-18 09:50:00,82.1,73.0,30.01,NNE,21,3.0,11.0,73,0.00,,,0.00,weatherlink.com 1.10,2013-05-18 13:50:00,
2013-05-18 10:05:00,82.9,73.0,30.01,East,90,8.0,10.0,71,0.00,,,0.00,weatherlink.com 1.10,2013-05-18 14:05:00,
2013-05-18 10:20:00,83.7,73.0,30.00,ENE,77,5.0,13.0,69,0.00,,,0.00,weatherlink.com 1.10,2013-05-18 14:20:00,
2013-05-18 10:35:00,84.5,73.0,30.00,ENE,63,11.0,11.0,68,0.00,,,0.00,weatherlink.com 1.10,2013-05-18 14:35:00,
2013-05-18 10:51:00,84.7,73.0,29.99,ENE,70,5.0,11.0,68,0.00,,,0.00,weatherlink.com 1.10,2013-05-18 14:51:00,
2013-05-18 11:06:00,85.0,72.0,29.99,East,92,3.0,12.0,66,0.00,,,0.00,weatherlink.com 1.10,2013-05-18 15:06:00,
2013-05-18 11:21:00,85.1,73.0,29.99,North,356,12.0,12.0,67,0.00,,,0.00,weatherlink.com 1.10,2013-05-18 15:21:00,
2013-05-18 11:36:00,85.1,72.0,29.99,ENE,77,5.0,12.0,66,0.00,,,0.00,weatherlink.com 1.10,2013-05-18 15:36:00,
2013-05-18 11:51:00,85.2,72.0,29.99,ENE,72,4.0,12.0,64,0.00,,,0.00,weatherlink.com 1.10,2013-05-18 15:51:00,
2013-05-18 12:06:00,85.6,72.0,29.98,NE,45,5.0,11.0,64,0.00,,,0.00,weatherlink.com 1.10,2013-05-18 16:06:00,
2013-05-18 12:21:00,85.0,72.0,29.98,NE,42,8.0,14.0,65,0.00,,,0.00,weatherlink.com 1.10,2013-05-18 16:21:00,
2013-05-18 12:36:00,85.4,72.0,29.97,ENE,65,2.0,12.0,65,0.00,,,0.00,weatherlink.com 1.10,2013-05-18 16:36:00,
2013-05-18 12:51:00,85.6,73.0,29.97,NE,34,9.0,13.0,67,0.00,,,0.00,weatherlink.com 1.10,2013-05-18 16:51:00,
2013-05-18 13:06:00,85.2,73.0,29.96,ENE,61,2.0,16.0,66,0.00,,,0.00,weatherlink.com 1.10,2013-05-18 17:06:00,
2013-05-18 13:21:00,84.3,73.0,29.97,NNE,30,10.0,13.0,69,0.00,,,0.00,weatherlink.com 1.10,2013-05-18 17:21:00,
2013-05-18 13:36:00,84.6,73.0,29.96,NNE,33,5.0,12.0,68,0.00,,,0.00,weatherlink.com 1.10,2013-05-18 17:36:00,
2013-05-18 13:51:00,84.7,72.0,29.96,NNE,26,5.0,11.0,66,0.00,,,0.00,weatherlink.com 1.10,2013-05-18 17:51:00,
2013-05-18 14:06:00,84.5,72.0,29.96,North,352,6.0,11.0,67,0.00,,,0.00,weatherlink.com 1.10,2013-05-18 18:06:00,
2013-05-18 14:21:00,84.0,73.0,29.96,ENE,63,9.0,11.0,69,0.00,,,0.00,weatherlink.com 1.10,2013-05-18 18:21:00,
2013-05-18 14:36:00,83.9,73.0,29.95,ENE,77,7.0,10.0,70,0.00,,,0.00,weatherlink.com 1.10,2013-05-18 18:36:00,
2013-05-18 14:51:00,84.0,74.0,29.95,ENE,58,8.0,12.0,71,0.00,,,0.00,weatherlink.com 1.10,2013-05-18 18:51:00,
2013-05-18 15:06:00,83.7,73.0,29.95,East,98,4.0,9.0,71,0.00,,,0.00,weatherlink.com 1.10,2013-05-18 19:06:00,
2013-05-18 15:21:00,83.9,74.0,29.95,East,86,4.0,12.0,72,0.00,,,0.00,weatherlink.com 1.10,2013-05-18 19:21:00,
2013-05-18 15:36:00,84.0,75.0,29.94,ENE,78,8.0,13.0,73,0.00,,,0.00,weatherlink.com 1.10,2013-05-18 19:36:00,
2013-05-18 15:51:00,83.9,74.0,29.94,NNE,18,3.0,12.0,73,0.00,,,0.00,weatherlink.com 1.10,2013-05-18 19:51:00,
2013-05-18 16:06:00,83.2,74.0,29.94,ENE,58,5.0,13.0,73,0.00,,,0.00,weatherlink.com 1.10,2013-05-18 20:06:00,
2013-05-18 16:21:00,82.4,76.0,29.94,ENE,66,4.0,12.0,80,0.00,,,0.00,weatherlink.com 1.10,2013-05-18 20:21:00,
2013-05-18 16:36:00,81.8,74.0,29.94,East,79,4.0,9.0,78,0.00,,,0.00,weatherlink.com 1.10,2013-05-18 20:36:00,
2013-05-18 16:51:00,82.4,73.0,29.94,ENE,58,9.0,11.0,73,0.00,,,0.00,weatherlink.com 1.10,2013-05-18 20:51:00,
2013-05-18 17:06:00,82.2,74.0,29.94,NE,38,5.0,13.0,75,0.00,,,0.00,weatherlink.com 1.10,2013-05-18 21:06:00,
2013-05-18 17:21:00,82.1,73.0,29.94,ESE,110,6.0,11.0,74,0.00,,,0.00,weatherlink.com 1.10,2013-05-18 21:21:00,
2013-05-18 17:36:00,82.1,73.0,29.95,East,88,6.0,10.0,74,0.00,,,0.00,weatherlink.com 1.10,2013-05-18 21:36:00,
2013-05-18 17:51:00,81.9,72.0,29.95,ESE,111,7.0,10.0,73,0.00,,,0.00,weatherlink.com 1.10,2013-05-18 21:51:00,
2013-05-18 18:06:00,81.9,73.0,29.96,East,94,7.0,9.0,74,0.00,,,0.00,weatherlink.com 1.10,2013-05-18 22:06:00,
2013-05-18 18:21:00,81.8,73.0,29.96,East,80,7.0,9.0,74,0.00,,,0.00,weatherlink.com 1.10,2013-05-18 22:21:00,
2013-05-18 18:36:00,81.3,74.0,29.96,SE,134,3.0,7.0,79,0.00,,,0.00,weatherlink.com 1.10,2013-05-18 22:36:00,
2013-05-18 18:51:00,80.5,74.0,29.96,ESE,121,2.0,3.0,80,0.00,,,0.00,weatherlink.com 1.10,2013-05-18 22:51:00,
2013-05-18 19:06:00,80.1,73.0,29.96,East,97,2.0,5.0,79,0.00,,,0.00,weatherlink.com 1.10,2013-05-18 23:06:00,
2013-05-18 19:21:00,80.2,73.0,29.96,East,87,1.0,4.0,79,0.00,,,0.00,weatherlink.com 1.10,2013-05-18 23:21:00,
2013-05-18 19:36:00,79.8,74.0,29.97,East,90,1.0,5.0,81,0.00,,,0.00,weatherlink.com 1.10,2013-05-18 23:36:00,
2013-05-18 19:51:00,79.7,73.0,29.97,SE,141,1.0,4.0,81,0.00,,,0.00,weatherlink.com 1.10,2013-05-18 23:51:00,
2013-05-18 20:06:00,79.7,73.0,29.98,East,100,1.0,3.0,81,0.00,,,0.00,weatherlink.com 1.10,2013-05-19 00:06:00,
2013-05-18 20:21:00,79.4,74.0,29.98,SE,135,2.0,4.0,83,0.00,,,0.00,weatherlink.com 1.10,2013-05-19 00:21:00,
2013-05-18 20:36:00,79.3,74.0,29.98,ESE,118,1.0,3.0,83,0.00,,,0.00,weatherlink.com 1.10,2013-05-19 00:36:00,
2013-05-18 20:51:00,79.2,74.0,29.98,SSE,160,1.0,3.0,84,0.00,,,0.00,weatherlink.com 1.10,2013-05-19 00:51:00,
2013-05-18 21:06:00,79.1,74.0,29.98,ESE,114,1.0,3.0,85,0.00,,,0.00,weatherlink.com 1.10,2013-05-19 01:06:00,
2013-05-18 21:21:00,78.9,74.0,29.98,ESE,103,1.0,4.0,85,0.00,,,0.00,weatherlink.com 1.10,2013-05-19 01:21:00,
2013-05-18 21:36:00,78.7,74.0,29.98,SE,134,1.0,3.0,85,0.00,,,0.00,weatherlink.com 1.10,2013-05-19 01:36:00,
2013-05-18 21:51:00,78.5,74.0,29.98,SE,128,0.0,3.0,86,0.00,,,0.00,weatherlink.com 1.10,2013-05-19 01:51:00,
2013-05-18 22:06:00,78.3,74.0,29.98,SE,128,1.0,2.0,86,0.00,,,0.00,weatherlink.com 1.10,2013-05-19 02:06:00,
2013-05-18 22:21:00,78.0,74.0,29.98,SE,124,1.0,3.0,86,0.00,,,0.00,weatherlink.com 1.10,2013-05-19 02:21:00,
2013-05-18 22:36:00,77.9,74.0,29.98,SE,131,0.0,4.0,86,0.00,,,0.00,weatherlink.com 1.10,2013-05-19 02:36:00,
2013-05-18 22:51:00,77.6,73.0,29.98,SE,127,0.0,2.0,86,0.00,,,0.00,weatherlink.com 1.10,2013-05-19 02:51:00,
2013-05-18 23:06:00,77.5,73.0,29.98,East,86,1.0,2.0,87,0.00,,,0.00,weatherlink.com 1.10,2013-05-19 03:06:00,
2013-05-18 23:21:00,77.5,73.0,29.98,ESE,112,2.0,3.0,86,0.00,,,0.00,weatherlink.com 1.10,2013-05-19 03:21:00,
2013-05-18 23:36:00,77.2,73.0,29.98,ESE,120,2.0,2.0,87,0.00,,,0.00,weatherlink.com 1.10,2013-05-19 03:36:00,
2013-05-18 23:51:00,77.0,73.0,29.98,ESE,122,0.0,4.0,86,0.00,,,0.00,weatherlink.com 1.10,2013-05-19 03:51:00,